Ola de calor (05-08-2005 > 08-08-2005)

Desconectado bijapi

  • Cb Calvus
  • ****
  • 1073
  • Sexo: Masculino
  • Espaa, pais de contrastes..... :)
Re: Ola de calor (05-08-2005 > 08-08-2005)
« Respuesta #444 en: Domingo 07 Agosto 2005 20:05:32 pm »
al final en aravaca 39,1 de maxima.....se ha disparado..........marca anual conseguida!
aravaca (la zarzuela) 687 msnm, madrid pais independiente!!

Desconectado <Lluvia>

  • Cb Calvus
  • ****
  • 2216
  • Sexo: Femenino
Re: Ola de calor (05-08-2005 > 08-08-2005)
« Respuesta #445 en: Domingo 07 Agosto 2005 20:06:12 pm »
Aqu lo tenis:  :o

LEBA 071600Z 25008KT 210V290 CAVOK 45/16 Q1009 =
LEBA 071500Z 26006KT 220V310 CAVOK 44/15 Q1010 =
LEBA 071400Z VRB03KT CAVOK 44/16 Q1010 =
LEBA 071300Z VRB01KT CAVOK 42/16 Q1011 =
LEBA 071200Z VRB01KT CAVOK 40/14 Q1012 =
LEBA 071000Z VRB03KT CAVOK 34/13 Q1013 =

MeteoJesus, como bien sabes el metar ofrece valores truncados, lo mas normal es que se haya quedado en un 44.6 o 44.7, pero no creo que haya superado los 45.0 observando los valores que ofrecia Cordoba-Apt. hora a hora.

Saludos.

Mammatus

  • Visitante
Re: Ola de calor (05-08-2005 > 08-08-2005)
« Respuesta #446 en: Domingo 07 Agosto 2005 20:06:31 pm »
Que pesaitos sois con lo de TIPICO, que si que vigilant y tu mamatus soys los mejores, que sabeis muxo y vays de guays, pienso que sois gente NORMALES como todo el mundo y no vayais como lo que sabeis muxo...

 ;D ;D ;D ;D

Tranquilo meteochiclana, relajat, que estamos de coa.

Yo utilizo "normal" igual que todas las personas "normales"  :P

Yo no soy el que mas sabe NI MUCHO MENOS, en esto de la meteo te aseguro que soy un completo ignorante....y Vigilant mas... 8)

Desconectado meteocrdoba

  • Cb Incus
  • *****
  • 2619
  • Sexo: Masculino
  • Crdoba. 29-01-2006
Re: Ola de calor (05-08-2005 > 08-08-2005)
« Respuesta #447 en: Domingo 07 Agosto 2005 20:11:44 pm »
Aqu lo tenis: :o

LEBA 071600Z 25008KT 210V290 CAVOK 45/16 Q1009 =
LEBA 071500Z 26006KT 220V310 CAVOK 44/15 Q1010 =
LEBA 071400Z VRB03KT CAVOK 44/16 Q1010 =
LEBA 071300Z VRB01KT CAVOK 42/16 Q1011 =
LEBA 071200Z VRB01KT CAVOK 40/14 Q1012 =
LEBA 071000Z VRB03KT CAVOK 34/13 Q1013 =

MeteoJesus, como bien sabes el metar ofrece valores truncados, lo mas normal es que se haya quedado en un 44.6 o 44.7, pero no creo que haya superado los 45.0 observando los valores que ofrecia Cordoba-Apt. hora a hora.

Saludos.

No creas, el Aeropuerto de Crdoba tiene la detestable cualidad de pegar un sprint tremendo entre las 18:00h y las 19:00h, por eso da siempre las mximas a una hora tan impropia como las 19:00h o a veces las 19:30h.

Yo creo que ha podido llegar a 45, aqui en la ciudad nos hemos quedado en 42.

Saludos!!
Crdoba. Barrio El Patriarca.
Altitud: 190 msnm

Davis Vantage Vue

330.000 habitantes.

Desconectado vigilant

  • Bob est sempre ocupat :p
  • Superclula Torndica
  • *******
  • 16520
  • Sexo: Masculino
  • Mahmoud Asgani y Ayaz Marhoni, en mi memoria
    • Meteorologia i fsica terica
Re: Ola de calor (05-08-2005 > 08-08-2005)
« Respuesta #448 en: Domingo 07 Agosto 2005 20:11:48 pm »
Os lo explico por ltima vez:  ;D ;D

Normal:

En estadstica:

Valor medio aritmtico

En probabilstica

Valor esperado. Media aritmtica de los valores probables.

En mdulos

Valor de referencia que se usa como unidad.


Tpico:

En estadstica:

Valor que se desva menos que la "desviacin tpica" de la distribucin estadstica a la que pertenece dicho valor.

En probabilstica

Valor obtenido que se desva menos que la "desviacin tpica" de la distribucin de probabilidad referida a dicha variable.

En mdulos

No definido.



Nota:

En realidad la probabilstica y al estadstica estan muy ligados, tanto que afectos prcticos son casi equivalentes.

Saluts!  :)

Desconectado MeteoChiclana

  • Cb Calvus
  • ****
  • 2112
  • Sexo: Masculino
  • Weeeeeeeee
Re: Ola de calor (05-08-2005 > 08-08-2005)
« Respuesta #449 en: Domingo 07 Agosto 2005 20:12:59 pm »
jaja, okok, pero esq vais los dos corrigiendo ala gnt cada dos x tres, lo veo bien no, pero esq pareceis que vais como que sois lo q mas sabeis, nose, y eso ami no me agrada... pero vamos que lo NORMAL en este foro esq todos nos llevemos bien, y lo TIPICO es que nadie se enfade, o corregidme eh si lo e dixo mal, jaja, q es broma. vng un saludo ;)

Desconectado vigilant

  • Bob est sempre ocupat :p
  • Superclula Torndica
  • *******
  • 16520
  • Sexo: Masculino
  • Mahmoud Asgani y Ayaz Marhoni, en mi memoria
    • Meteorologia i fsica terica
Re: Ola de calor (05-08-2005 > 08-08-2005)
« Respuesta #450 en: Domingo 07 Agosto 2005 20:17:03 pm »
jaja, okok, pero esq vais los dos corrigiendo ala gnt cada dos x tres, lo veo bien no, pero esq pareceis que vais como que sois lo q mas sabeis, nose, y eso ami no me agrada... pero vamos que lo NORMAL en este foro esq todos nos llevemos bien, y lo TIPICO es que nadie se enfade, o corregidme eh si lo e dixo mal, jaja, q es broma. vng un saludo ;)

jejeje.

Yo me llevo bien con todo el mundo excepto aqullos que critican por sistemtica, es decir, sin argumentar.

A m me encanta que se critique a lo que sea, y a quien sea, pero se ha de adjuntar la argumentacin lgica que apoye dicha crtica.

Quede claro que a m no me gusta ni el GFS ni el INM ni prcticamente nada, pero los defiendo en aquello que tengan razn. Pero hay gentee que se mete con ellos por sistemtica (por mana).

La mana no es buena.

Por lo dems te doy toda la razn.  ;) Ya me callo  ;D

Saluts!  ;)

Desconectado Kangerdlugssuaq, Paco pa los amigos

  • Cumulus Hmilis
  • **
  • 419
  • Sexo: Masculino
  • El Boalo (Madrid), altitud 950 m
Re: Ola de calor (05-08-2005 > 08-08-2005)
« Respuesta #451 en: Domingo 07 Agosto 2005 20:23:12 pm »
Bueno, yo sigo con lo normal para este hilo, que es hablar de la ola calor (o tpico calorcito de Agosto segn se quiera ver) ;D ;D.

Datos Actuales desde Tres Cantos (Madrid):

- Temperatura: 35,0 C
- Humedad relativa: 16%
- Presin: 1016 mb

Salu2!

Plataforma por la salvacin del 'A ver ..'
No a la invasin del 'Haber ..'

Desconectado vigilant

  • Bob est sempre ocupat :p
  • Superclula Torndica
  • *******
  • 16520
  • Sexo: Masculino
  • Mahmoud Asgani y Ayaz Marhoni, en mi memoria
    • Meteorologia i fsica terica
Re: Ola de calor (05-08-2005 > 08-08-2005)
« Respuesta #452 en: Domingo 07 Agosto 2005 20:30:10 pm »
Que pesaitos sois con lo de TIPICO, que si que vigilant y tu mamatus soys los mejores, que sabeis muxo y vays de guays, pienso que sois gente NORMALES como todo el mundo y no vayais como lo que sabeis muxo...

 ;D ;D ;D ;D

Tranquilo meteochiclana, relajat, que estamos de coa.

Yo utilizo "normal" igual que todas las personas "normales"  :P

Yo no soy el que mas sabe NI MUCHO MENOS, en esto de la meteo te aseguro que soy un completo ignorante....y Vigilant mas... 8)

En ese ltimo estoy totalmente de acuerdo con Mammatus, soy un ignorante en meteo, y en prcticamente en todo. Y en lo de la coa tambin estoy muy de acuerdo.

Sigamos con el hilo.

En Valencia no tenemos ola de calor!!  ;D ;D ;D

Desconectado 1979

  • Cb Incus
  • *****
  • 3988
  • Sexo: Masculino
  • El Espinar (Segovia) 1230 m, Sistema Central
Re: Ola de calor (05-08-2005 > 08-08-2005)
« Respuesta #453 en: Domingo 07 Agosto 2005 20:33:15 pm »
aqui 28.1 C y 20% HR
Pienso, luego existo. I think, therefore I am. Je suis, donc je pense. Ich denke, also ben ich. Io penso, pertanto io sono. Ik denk, dus ik bin. Eu penso, logo eu existo.

Desconectado alexis72

  • Cumulus Hmilis
  • **
  • 168
  • Sexo: Femenino
  • Los flojos son muertos que no pueden enterrarse
    • Del fin del mundo y otras cosas....
Re: Ola de calor (05-08-2005 > 08-08-2005)
« Respuesta #454 en: Domingo 07 Agosto 2005 20:39:00 pm »
Y a efectos prcticos si es normal o tpico nos da igual nos estamos asando  >:(

Desconectado fobitos

  • Superclula Torndica
  • *******
  • 17643
  • Sexo: Masculino
  • Muy rico en vitamina K y anticancergeno
    • meteomstoles
Re: Ola de calor (05-08-2005 > 08-08-2005)
« Respuesta #455 en: Domingo 07 Agosto 2005 20:44:39 pm »
Yo hoy he llegado a 42 y al sol habias mas de 48,lo que pasa que quite el termometro por si se jodia.Parece que maana empiezan a bajar,pero bueno,un agosto caluroso,es lo normal,y quizas una seal buena de que el otoo sea como debe ser o quizas no...ojala llueva pronto.

http://meteomostoles.blogspot.com/
Desde Mstoles,a 670msnm. en twitter: @meteomostoles / No es meteorlogo solo el que predice.